sensor_id;sensor_type;location;lat;lon;timestamp;temperature;humidity
64855;DHT22;51321;50.428;8.378;2023-12-28T00:00:18;4.90;99.90
64855;DHT22;51321;50.428;8.378;2023-12-28T00:02:58;5.20;99.90
64855;DHT22;51321;50.428;8.378;2023-12-28T00:05:39;5.30;99.90
64855;DHT22;51321;50.428;8.378;2023-12-28T00:08:20;5.50;99.90
64855;DHT22;51321;50.428;8.378;2023-12-28T00:11:00;5.40;99.90
64855;DHT22;51321;50.428;8.378;2023-12-28T00:13:42;5.50;99.90
64855;DHT22;51321;50.428;8.378;2023-12-28T00:16:22;5.60;99.90
64855;DHT22;51321;50.428;8.378;2023-12-28T00:19:03;5.70;99.90
64855;DHT22;51321;50.428;8.378;2023-12-28T00:21:44;5.80;99.90
64855;DHT22;51321;50.428;8.378;2023-12-28T00:24:25;5.80;99.90
64855;DHT22;51321;50.428;8.378;2023-12-28T00:27:06;5.90;99.90
64855;DHT22;51321;50.428;8.378;2023-12-28T00:29:48;6.00;99.90
64855;DHT22;51321;50.428;8.378;2023-12-28T00:32:28;6.00;99.90
64855;DHT22;51321;50.428;8.378;2023-12-28T00:35:09;6.10;99.90
64855;DHT22;51321;50.428;8.378;2023-12-28T00:37:50;6.20;99.90
64855;DHT22;51321;50.428;8.378;2023-12-28T00:40:31;6.40;99.90
64855;DHT22;51321;50.428;8.378;2023-12-28T00:43:11;6.50;99.90
64855;DHT22;51321;50.428;8.378;2023-12-28T00:45:53;6.60;99.90
64855;DHT22;51321;50.428;8.378;2023-12-28T00:48:33;6.90;99.90
64855;DHT22;51321;50.428;8.378;2023-12-28T00:51:14;7.10;99.90
64855;DHT22;51321;50.428;8.378;2023-12-28T00:53:55;7.20;99.90
64855;DHT22;51321;50.428;8.378;2023-12-28T00:56:35;7.30;99.90
64855;DHT22;51321;50.428;8.378;2023-12-28T00:59:15;7.40;99.90
64855;DHT22;51321;50.428;8.378;2023-12-28T01:01:57;7.80;99.90
64855;DHT22;51321;50.428;8.378;2023-12-28T01:04:38;7.90;99.90
64855;DHT22;51321;50.428;8.378;2023-12-28T01:07:19;7.90;99.90
64855;DHT22;51321;50.428;8.378;2023-12-28T01:09:59;8.00;99.90
64855;DHT22;51321;50.428;8.378;2023-12-28T01:12:40;8.10;99.90
64855;DHT22;51321;50.428;8.378;2023-12-28T01:15:20;8.30;99.90
64855;DHT22;51321;50.428;8.378;2023-12-28T01:18:02;8.30;99.90
64855;DHT22;51321;50.428;8.378;2023-12-28T01:20:43;8.30;99.90
64855;DHT22;51321;50.428;8.378;2023-12-28T01:23:24;8.30;99.90
64855;DHT22;51321;50.428;8.378;2023-12-28T01:26:05;8.30;99.90
64855;DHT22;51321;50.428;8.378;2023-12-28T01:28:46;8.40;99.90
64855;DHT22;51321;50.428;8.378;2023-12-28T01:31:26;8.40;99.90
64855;DHT22;51321;50.428;8.378;2023-12-28T01:34:08;8.40;99.90
64855;DHT22;51321;50.428;8.378;2023-12-28T01:36:49;8.50;99.90
64855;DHT22;51321;50.428;8.378;2023-12-28T01:39:30;8.50;99.90
64855;DHT22;51321;50.428;8.378;2023-12-28T01:42:10;8.50;99.90
64855;DHT22;51321;50.428;8.378;2023-12-28T01:44:50;8.50;99.90
64855;DHT22;51321;50.428;8.378;2023-12-28T01:47:31;8.50;99.90
64855;DHT22;51321;50.428;8.378;2023-12-28T01:50:13;8.40;99.90
64855;DHT22;51321;50.428;8.378;2023-12-28T01:52:55;8.30;99.90
64855;DHT22;51321;50.428;8.378;2023-12-28T01:55:36;8.30;99.90
64855;DHT22;51321;50.428;8.378;2023-12-28T01:58:16;8.20;99.90
64855;DHT22;51321;50.428;8.378;2023-12-28T02:00:57;8.00;99.90
64855;DHT22;51321;50.428;8.378;2023-12-28T02:03:38;8.00;99.90
64855;DHT22;51321;50.428;8.378;2023-12-28T02:06:23;7.90;99.90
64855;DHT22;51321;50.428;8.378;2023-12-28T02:09:04;7.90;99.90
64855;DHT22;51321;50.428;8.378;2023-12-28T02:11:44;7.80;99.90
64855;DHT22;51321;50.428;8.378;2023-12-28T02:14:25;7.80;99.90
64855;DHT22;51321;50.428;8.378;2023-12-28T02:17:10;7.80;99.90
64855;DHT22;51321;50.428;8.378;2023-12-28T02:19:55;7.80;99.90
64855;DHT22;51321;50.428;8.378;2023-12-28T02:22:37;7.90;99.90
64855;DHT22;51321;50.428;8.378;2023-12-28T02:25:20;7.90;99.90
64855;DHT22;51321;50.428;8.378;2023-12-28T02:28:01;7.90;99.90
64855;DHT22;51321;50.428;8.378;2023-12-28T02:30:42;7.90;99.90
64855;DHT22;51321;50.428;8.378;2023-12-28T02:33:26;8.00;99.90
64855;DHT22;51321;50.428;8.378;2023-12-28T02:36:11;8.10;99.90
64855;DHT22;51321;50.428;8.378;2023-12-28T02:38:56;8.10;99.90
64855;DHT22;51321;50.428;8.378;2023-12-28T02:41:40;8.10;99.90
64855;DHT22;51321;50.428;8.378;2023-12-28T02:44:22;8.10;99.90
64855;DHT22;51321;50.428;8.378;2023-12-28T02:47:05;8.20;99.90
64855;DHT22;51321;50.428;8.378;2023-12-28T02:49:47;8.30;99.90
64855;DHT22;51321;50.428;8.378;2023-12-28T02:52:29;8.40;99.90
64855;DHT22;51321;50.428;8.378;2023-12-28T02:55:11;8.50;99.90
64855;DHT22;51321;50.428;8.378;2023-12-28T02:57:56;8.50;99.90
64855;DHT22;51321;50.428;8.378;2023-12-28T03:00:38;8.60;99.90
64855;DHT22;51321;50.428;8.378;2023-12-28T03:03:18;8.70;99.90
64855;DHT22;51321;50.428;8.378;2023-12-28T03:05:59;8.70;99.90
64855;DHT22;51321;50.428;8.378;2023-12-28T03:08:40;8.70;99.90
64855;DHT22;51321;50.428;8.378;2023-12-28T03:11:20;8.70;99.90
64855;DHT22;51321;50.428;8.378;2023-12-28T03:14:03;8.70;99.90
64855;DHT22;51321;50.428;8.378;2023-12-28T03:16:44;8.70;99.90
64855;DHT22;51321;50.428;8.378;2023-12-28T03:19:25;8.80;99.90
64855;DHT22;51321;50.428;8.378;2023-12-28T03:22:05;8.70;99.90
64855;DHT22;51321;50.428;8.378;2023-12-28T03:24:46;8.80;99.90
64855;DHT22;51321;50.428;8.378;2023-12-28T03:27:27;8.80;99.90
64855;DHT22;51321;50.428;8.378;2023-12-28T03:30:11;8.70;99.90
64855;DHT22;51321;50.428;8.378;2023-12-28T03:32:51;8.70;99.90
64855;DHT22;51321;50.428;8.378;2023-12-28T03:35:32;8.70;99.90
64855;DHT22;51321;50.428;8.378;2023-12-28T03:38:12;8.70;99.90
64855;DHT22;51321;50.428;8.378;2023-12-28T03:40:53;8.70;99.90
64855;DHT22;51321;50.428;8.378;2023-12-28T03:43:34;8.80;99.90
64855;DHT22;51321;50.428;8.378;2023-12-28T03:46:16;8.80;99.90
64855;DHT22;51321;50.428;8.378;2023-12-28T03:48:56;8.80;99.90
64855;DHT22;51321;50.428;8.378;2023-12-28T03:51:37;8.80;99.90
64855;DHT22;51321;50.428;8.378;2023-12-28T03:54:18;8.80;99.90
64855;DHT22;51321;50.428;8.378;2023-12-28T03:56:58;8.80;99.90
64855;DHT22;51321;50.428;8.378;2023-12-28T03:59:39;8.80;99.90
64855;DHT22;51321;50.428;8.378;2023-12-28T04:02:21;8.80;99.90
64855;DHT22;51321;50.428;8.378;2023-12-28T04:05:04;8.80;99.90
64855;DHT22;51321;50.428;8.378;2023-12-28T04:07:46;8.80;99.90
64855;DHT22;51321;50.428;8.378;2023-12-28T04:10:31;8.70;99.90
64855;DHT22;51321;50.428;8.378;2023-12-28T04:13:11;8.80;99.90
64855;DHT22;51321;50.428;8.378;2023-12-28T04:15:52;8.80;99.90
64855;DHT22;51321;50.428;8.378;2023-12-28T04:18:34;8.80;99.90
64855;DHT22;51321;50.428;8.378;2023-12-28T04:21:14;8.70;99.90
64855;DHT22;51321;50.428;8.378;2023-12-28T04:23:54;8.70;99.90
64855;DHT22;51321;50.428;8.378;2023-12-28T04:26:35;8.70;99.90
64855;DHT22;51321;50.428;8.378;2023-12-28T04:29:16;8.80;99.90
64855;DHT22;51321;50.428;8.378;2023-12-28T04:31:56;8.70;99.90
64855;DHT22;51321;50.428;8.378;2023-12-28T04:34:38;8.80;99.90
64855;DHT22;51321;50.428;8.378;2023-12-28T04:37:19;8.70;99.90
64855;DHT22;51321;50.428;8.378;2023-12-28T04:40:00;8.70;99.90
64855;DHT22;51321;50.428;8.378;2023-12-28T04:42:42;8.60;99.90
64855;DHT22;51321;50.428;8.378;2023-12-28T04:45:22;8.60;99.90
64855;DHT22;51321;50.428;8.378;2023-12-28T04:48:04;8.60;99.90
64855;DHT22;51321;50.428;8.378;2023-12-28T04:50:46;8.60;99.90
64855;DHT22;51321;50.428;8.378;2023-12-28T04:53:27;8.70;99.90
64855;DHT22;51321;50.428;8.378;2023-12-28T04:56:08;8.70;99.90
64855;DHT22;51321;50.428;8.378;2023-12-28T04:58:48;8.70;99.90
64855;DHT22;51321;50.428;8.378;2023-12-28T05:01:28;8.60;99.90
64855;DHT22;51321;50.428;8.378;2023-12-28T05:04:11;8.50;99.90
64855;DHT22;51321;50.428;8.378;2023-12-28T05:06:53;8.50;99.90
64855;DHT22;51321;50.428;8.378;2023-12-28T05:09:33;8.50;99.90
64855;DHT22;51321;50.428;8.378;2023-12-28T05:12:14;8.40;99.90
64855;DHT22;51321;50.428;8.378;2023-12-28T05:14:54;8.40;99.90
64855;DHT22;51321;50.428;8.378;2023-12-28T05:17:34;8.40;99.90
64855;DHT22;51321;50.428;8.378;2023-12-28T05:20:15;8.40;99.90
64855;DHT22;51321;50.428;8.378;2023-12-28T05:22:57;8.50;99.90
64855;DHT22;51321;50.428;8.378;2023-12-28T05:25:38;8.40;99.90
64855;DHT22;51321;50.428;8.378;2023-12-28T05:28:18;8.40;99.90
64855;DHT22;51321;50.428;8.378;2023-12-28T05:30:59;8.40;99.90
64855;DHT22;51321;50.428;8.378;2023-12-28T05:33:39;8.40;99.90
64855;DHT22;51321;50.428;8.378;2023-12-28T05:36:20;8.30;99.90
64855;DHT22;51321;50.428;8.378;2023-12-28T05:39:02;8.40;99.90
64855;DHT22;51321;50.428;8.378;2023-12-28T05:41:43;8.30;99.90
64855;DHT22;51321;50.428;8.378;2023-12-28T05:44:27;8.30;99.90
64855;DHT22;51321;50.428;8.378;2023-12-28T05:47:07;8.30;99.90
64855;DHT22;51321;50.428;8.378;2023-12-28T05:49:48;8.30;99.90
64855;DHT22;51321;50.428;8.378;2023-12-28T05:52:28;8.30;99.90
64855;DHT22;51321;50.428;8.378;2023-12-28T05:55:10;8.20;99.90
64855;DHT22;51321;50.428;8.378;2023-12-28T05:57:50;8.20;99.90
64855;DHT22;51321;50.428;8.378;2023-12-28T06:00:31;8.20;99.90
64855;DHT22;51321;50.428;8.378;2023-12-28T06:03:12;8.20;99.90
64855;DHT22;51321;50.428;8.378;2023-12-28T06:05:52;8.20;99.90
64855;DHT22;51321;50.428;8.378;2023-12-28T06:08:35;8.10;99.90
64855;DHT22;51321;50.428;8.378;2023-12-28T06:11:17;8.20;99.90
64855;DHT22;51321;50.428;8.378;2023-12-28T06:13:57;8.20;99.90
64855;DHT22;51321;50.428;8.378;2023-12-28T06:16:38;8.20;99.90
64855;DHT22;51321;50.428;8.378;2023-12-28T06:19:18;8.20;99.90
64855;DHT22;51321;50.428;8.378;2023-12-28T06:21:59;8.20;99.90
64855;DHT22;51321;50.428;8.378;2023-12-28T06:24:40;8.10;99.90
64855;DHT22;51321;50.428;8.378;2023-12-28T06:27:21;8.10;99.90
64855;DHT22;51321;50.428;8.378;2023-12-28T06:30:03;8.10;99.90
64855;DHT22;51321;50.428;8.378;2023-12-28T06:32:43;8.10;99.90
64855;DHT22;51321;50.428;8.378;2023-12-28T06:35:24;8.10;99.90
64855;DHT22;51321;50.428;8.378;2023-12-28T06:38:05;8.00;99.90
64855;DHT22;51321;50.428;8.378;2023-12-28T06:40:46;7.90;99.90
64855;DHT22;51321;50.428;8.378;2023-12-28T06:43:28;7.80;99.90
64855;DHT22;51321;50.428;8.378;2023-12-28T06:46:08;7.80;99.90
64855;DHT22;51321;50.428;8.378;2023-12-28T06:48:48;7.80;99.90
64855;DHT22;51321;50.428;8.378;2023-12-28T06:51:29;7.80;99.90
64855;DHT22;51321;50.428;8.378;2023-12-28T06:54:09;7.70;99.90
64855;DHT22;51321;50.428;8.378;2023-12-28T06:56:49;7.70;99.90
64855;DHT22;51321;50.428;8.378;2023-12-28T06:59:31;7.70;99.90
64855;DHT22;51321;50.428;8.378;2023-12-28T07:02:11;7.60;99.90
64855;DHT22;51321;50.428;8.378;2023-12-28T07:04:52;7.50;99.90
64855;DHT22;51321;50.428;8.378;2023-12-28T07:07:32;7.40;99.90
64855;DHT22;51321;50.428;8.378;2023-12-28T07:10:13;7.40;99.90
64855;DHT22;51321;50.428;8.378;2023-12-28T07:12:54;7.40;99.90
64855;DHT22;51321;50.428;8.378;2023-12-28T07:15:35;7.50;99.90
64855;DHT22;51321;50.428;8.378;2023-12-28T07:18:16;7.50;99.90
64855;DHT22;51321;50.428;8.378;2023-12-28T07:20:56;7.40;99.90
64855;DHT22;51321;50.428;8.378;2023-12-28T07:23:37;7.50;99.90
64855;DHT22;51321;50.428;8.378;2023-12-28T07:26:18;7.50;99.90
64855;DHT22;51321;50.428;8.378;2023-12-28T07:28:58;7.60;99.90
64855;DHT22;51321;50.428;8.378;2023-12-28T07:31:40;7.70;99.90
64855;DHT22;51321;50.428;8.378;2023-12-28T07:34:21;7.70;99.90
64855;DHT22;51321;50.428;8.378;2023-12-28T07:37:01;7.60;99.90
64855;DHT22;51321;50.428;8.378;2023-12-28T07:39:42;7.70;99.90
64855;DHT22;51321;50.428;8.378;2023-12-28T07:42:22;7.60;99.90
64855;DHT22;51321;50.428;8.378;2023-12-28T07:45:03;7.60;99.90
64855;DHT22;51321;50.428;8.378;2023-12-28T07:47:45;7.60;99.90
64855;DHT22;51321;50.428;8.378;2023-12-28T07:50:26;7.50;99.90
64855;DHT22;51321;50.428;8.378;2023-12-28T07:53:06;7.40;99.90
64855;DHT22;51321;50.428;8.378;2023-12-28T07:55:47;7.40;99.90
64855;DHT22;51321;50.428;8.378;2023-12-28T07:58:27;7.30;99.90
64855;DHT22;51321;50.428;8.378;2023-12-28T08:01:10;7.30;99.90
64855;DHT22;51321;50.428;8.378;2023-12-28T08:03:52;7.30;99.90
64855;DHT22;51321;50.428;8.378;2023-12-28T08:06:33;7.20;99.90
64855;DHT22;51321;50.428;8.378;2023-12-28T08:09:13;7.30;99.90
64855;DHT22;51321;50.428;8.378;2023-12-28T08:11:54;7.20;99.90
64855;DHT22;51321;50.428;8.378;2023-12-28T08:14:34;7.20;99.90
64855;DHT22;51321;50.428;8.378;2023-12-28T08:17:15;7.20;99.90
64855;DHT22;51321;50.428;8.378;2023-12-28T08:19:57;7.20;99.90
64855;DHT22;51321;50.428;8.378;2023-12-28T08:22:38;7.20;99.90
64855;DHT22;51321;50.428;8.378;2023-12-28T08:25:18;7.10;99.90
64855;DHT22;51321;50.428;8.378;2023-12-28T08:27:59;7.20;99.90
64855;DHT22;51321;50.428;8.378;2023-12-28T08:30:39;7.10;99.90
64855;DHT22;51321;50.428;8.378;2023-12-28T08:33:19;7.20;99.90
64855;DHT22;51321;50.428;8.378;2023-12-28T08:36:03;7.30;99.90
64855;DHT22;51321;50.428;8.378;2023-12-28T08:38:43;7.20;99.90
64855;DHT22;51321;50.428;8.378;2023-12-28T08:41:24;7.20;99.90
64855;DHT22;51321;50.428;8.378;2023-12-28T08:44:05;7.30;99.90
64855;DHT22;51321;50.428;8.378;2023-12-28T08:46:46;7.30;99.90
64855;DHT22;51321;50.428;8.378;2023-12-28T08:49:27;7.30;99.90
64855;DHT22;51321;50.428;8.378;2023-12-28T08:52:09;7.40;99.90
64855;DHT22;51321;50.428;8.378;2023-12-28T08:54:50;7.40;99.90
64855;DHT22;51321;50.428;8.378;2023-12-28T08:57:31;7.50;99.90
64855;DHT22;51321;50.428;8.378;2023-12-28T09:00:12;7.50;99.90
64855;DHT22;51321;50.428;8.378;2023-12-28T09:02:54;7.50;99.90
64855;DHT22;51321;50.428;8.378;2023-12-28T09:05:35;7.40;99.90
64855;DHT22;51321;50.428;8.378;2023-12-28T09:08:17;7.40;99.90
64855;DHT22;51321;50.428;8.378;2023-12-28T09:10:57;7.50;99.90
64855;DHT22;51321;50.428;8.378;2023-12-28T09:13:38;7.60;99.90
64855;DHT22;51321;50.428;8.378;2023-12-28T09:16:19;7.70;99.90
64855;DHT22;51321;50.428;8.378;2023-12-28T09:19:00;7.70;99.90
64855;DHT22;51321;50.428;8.378;2023-12-28T09:21:41;7.70;99.90
64855;DHT22;51321;50.428;8.378;2023-12-28T09:24:22;7.70;99.90
64855;DHT22;51321;50.428;8.378;2023-12-28T09:27:03;7.70;99.90
64855;DHT22;51321;50.428;8.378;2023-12-28T09:29:43;7.90;99.90
64855;DHT22;51321;50.428;8.378;2023-12-28T09:32:25;8.00;99.90
64855;DHT22;51321;50.428;8.378;2023-12-28T09:35:06;8.20;99.90
64855;DHT22;51321;50.428;8.378;2023-12-28T09:37:46;8.40;99.90
64855;DHT22;51321;50.428;8.378;2023-12-28T09:40:29;8.60;99.90
64855;DHT22;51321;50.428;8.378;2023-12-28T09:43:13;8.80;99.90
64855;DHT22;51321;50.428;8.378;2023-12-28T09:45:55;8.90;99.90
64855;DHT22;51321;50.428;8.378;2023-12-28T09:48:37;9.10;99.90
64855;DHT22;51321;50.428;8.378;2023-12-28T09:51:18;9.30;99.90
64855;DHT22;51321;50.428;8.378;2023-12-28T09:53:59;9.40;99.90
64855;DHT22;51321;50.428;8.378;2023-12-28T09:56:41;9.60;99.90
64855;DHT22;51321;50.428;8.378;2023-12-28T09:59:21;9.70;99.90
64855;DHT22;51321;50.428;8.378;2023-12-28T10:02:03;9.70;99.90
64855;DHT22;51321;50.428;8.378;2023-12-28T10:04:44;9.70;99.90
64855;DHT22;51321;50.428;8.378;2023-12-28T10:07:24;9.80;99.90
64855;DHT22;51321;50.428;8.378;2023-12-28T10:10:06;10.10;99.90
64855;DHT22;51321;50.428;8.378;2023-12-28T10:12:49;10.40;99.90
64855;DHT22;51321;50.428;8.378;2023-12-28T10:15:31;10.50;99.90
64855;DHT22;51321;50.428;8.378;2023-12-28T10:18:12;10.60;99.90
64855;DHT22;51321;50.428;8.378;2023-12-28T10:20:53;10.40;99.90
64855;DHT22;51321;50.428;8.378;2023-12-28T10:23:33;10.20;99.90
64855;DHT22;51321;50.428;8.378;2023-12-28T10:26:14;10.00;99.90
64855;DHT22;51321;50.428;8.378;2023-12-28T10:29:00;9.90;99.90
64855;DHT22;51321;50.428;8.378;2023-12-28T10:31:42;9.80;99.90
64855;DHT22;51321;50.428;8.378;2023-12-28T10:34:24;10.00;99.90
64855;DHT22;51321;50.428;8.378;2023-12-28T10:37:05;10.20;99.90
64855;DHT22;51321;50.428;8.378;2023-12-28T10:39:47;10.40;99.90
64855;DHT22;51321;50.428;8.378;2023-12-28T10:42:31;10.70;99.90
64855;DHT22;51321;50.428;8.378;2023-12-28T10:45:14;10.80;99.90
64855;DHT22;51321;50.428;8.378;2023-12-28T10:48:04;10.80;99.90
64855;DHT22;51321;50.428;8.378;2023-12-28T10:50:49;10.70;99.90
64855;DHT22;51321;50.428;8.378;2023-12-28T10:53:38;10.60;99.90
64855;DHT22;51321;50.428;8.378;2023-12-28T10:56:23;10.60;99.90
64855;DHT22;51321;50.428;8.378;2023-12-28T10:59:14;10.90;99.90
64855;DHT22;51321;50.428;8.378;2023-12-28T11:02:01;11.10;99.90
64855;DHT22;51321;50.428;8.378;2023-12-28T11:04:46;11.40;99.90
64855;DHT22;51321;50.428;8.378;2023-12-28T11:07:27;11.40;99.90
64855;DHT22;51321;50.428;8.378;2023-12-28T11:10:13;11.40;99.90
64855;DHT22;51321;50.428;8.378;2023-12-28T11:12:54;11.40;99.90
64855;DHT22;51321;50.428;8.378;2023-12-28T11:15:37;11.40;99.90
64855;DHT22;51321;50.428;8.378;2023-12-28T11:18:19;11.40;99.90
64855;DHT22;51321;50.428;8.378;2023-12-28T11:21:02;11.60;99.90
64855;DHT22;51321;50.428;8.378;2023-12-28T11:23:43;11.80;99.90
64855;DHT22;51321;50.428;8.378;2023-12-28T11:26:25;11.90;99.90
64855;DHT22;51321;50.428;8.378;2023-12-28T11:29:07;11.80;99.90
64855;DHT22;51321;50.428;8.378;2023-12-28T11:31:51;12.00;99.90
64855;DHT22;51321;50.428;8.378;2023-12-28T11:34:33;12.00;99.90
64855;DHT22;51321;50.428;8.378;2023-12-28T11:37:16;12.00;99.90
64855;DHT22;51321;50.428;8.378;2023-12-28T11:40:10;11.90;99.90
64855;DHT22;51321;50.428;8.378;2023-12-28T11:42:51;12.00;99.90
64855;DHT22;51321;50.428;8.378;2023-12-28T11:45:32;12.10;99.90
64855;DHT22;51321;50.428;8.378;2023-12-28T11:48:22;12.20;99.90
64855;DHT22;51321;50.428;8.378;2023-12-28T11:51:04;12.30;99.90
64855;DHT22;51321;50.428;8.378;2023-12-28T11:53:45;12.30;99.90
64855;DHT22;51321;50.428;8.378;2023-12-28T11:56:26;12.30;99.90
64855;DHT22;51321;50.428;8.378;2023-12-28T11:59:07;12.10;99.90
64855;DHT22;51321;50.428;8.378;2023-12-28T12:01:51;11.90;99.90
64855;DHT22;51321;50.428;8.378;2023-12-28T12:04:34;11.70;99.90
64855;DHT22;51321;50.428;8.378;2023-12-28T12:07:16;11.60;99.90
64855;DHT22;51321;50.428;8.378;2023-12-28T12:09:58;11.40;99.90
64855;DHT22;51321;50.428;8.378;2023-12-28T12:12:38;11.20;99.90
64855;DHT22;51321;50.428;8.378;2023-12-28T12:15:19;11.10;99.90
64855;DHT22;51321;50.428;8.378;2023-12-28T12:18:00;11.20;99.90
64855;DHT22;51321;50.428;8.378;2023-12-28T12:20:41;11.30;99.90
64855;DHT22;51321;50.428;8.378;2023-12-28T12:23:24;11.30;99.90
64855;DHT22;51321;50.428;8.378;2023-12-28T12:26:07;11.30;99.90
64855;DHT22;51321;50.428;8.378;2023-12-28T12:28:47;11.30;99.90
64855;DHT22;51321;50.428;8.378;2023-12-28T12:31:28;11.30;99.90
64855;DHT22;51321;50.428;8.378;2023-12-28T12:34:09;11.30;99.90
64855;DHT22;51321;50.428;8.378;2023-12-28T12:36:50;11.30;99.90
64855;DHT22;51321;50.428;8.378;2023-12-28T12:39:34;11.20;99.90
64855;DHT22;51321;50.428;8.378;2023-12-28T12:42:15;11.20;99.90
64855;DHT22;51321;50.428;8.378;2023-12-28T12:44:56;11.20;99.90
64855;DHT22;51321;50.428;8.378;2023-12-28T12:47:37;11.10;99.90
64855;DHT22;51321;50.428;8.378;2023-12-28T12:50:20;11.00;99.90
64855;DHT22;51321;50.428;8.378;2023-12-28T12:53:01;10.90;99.90
64855;DHT22;51321;50.428;8.378;2023-12-28T12:55:43;10.90;99.90
64855;DHT22;51321;50.428;8.378;2023-12-28T12:58:25;10.80;99.90
64855;DHT22;51321;50.428;8.378;2023-12-28T13:01:10;10.80;99.90
64855;DHT22;51321;50.428;8.378;2023-12-28T13:03:51;10.70;99.90
64855;DHT22;51321;50.428;8.378;2023-12-28T13:06:31;10.70;99.90
64855;DHT22;51321;50.428;8.378;2023-12-28T13:09:12;10.60;99.90
64855;DHT22;51321;50.428;8.378;2023-12-28T13:11:54;10.50;99.90
64855;DHT22;51321;50.428;8.378;2023-12-28T13:14:34;10.50;99.90
64855;DHT22;51321;50.428;8.378;2023-12-28T13:17:14;10.50;99.90
64855;DHT22;51321;50.428;8.378;2023-12-28T13:19:55;10.50;99.90
64855;DHT22;51321;50.428;8.378;2023-12-28T13:22:36;10.40;99.90
64855;DHT22;51321;50.428;8.378;2023-12-28T13:25:16;10.40;99.90
64855;DHT22;51321;50.428;8.378;2023-12-28T13:27:58;10.40;99.90
64855;DHT22;51321;50.428;8.378;2023-12-28T13:30:39;10.30;99.90
64855;DHT22;51321;50.428;8.378;2023-12-28T13:33:20;10.40;99.90
64855;DHT22;51321;50.428;8.378;2023-12-28T13:36:00;10.40;99.90
64855;DHT22;51321;50.428;8.378;2023-12-28T13:38:42;10.40;99.90
64855;DHT22;51321;50.428;8.378;2023-12-28T13:41:22;10.40;99.90
64855;DHT22;51321;50.428;8.378;2023-12-28T13:44:04;10.30;99.90
64855;DHT22;51321;50.428;8.378;2023-12-28T13:46:49;10.30;99.90
64855;DHT22;51321;50.428;8.378;2023-12-28T13:49:29;10.30;99.90
64855;DHT22;51321;50.428;8.378;2023-12-28T13:52:10;10.30;99.90
64855;DHT22;51321;50.428;8.378;2023-12-28T13:54:50;10.30;99.90
64855;DHT22;51321;50.428;8.378;2023-12-28T13:57:31;10.30;99.90
64855;DHT22;51321;50.428;8.378;2023-12-28T14:00:14;10.30;99.90
64855;DHT22;51321;50.428;8.378;2023-12-28T14:02:55;10.40;99.90
64855;DHT22;51321;50.428;8.378;2023-12-28T14:05:38;10.40;99.90
64855;DHT22;51321;50.428;8.378;2023-12-28T14:08:18;10.40;99.90
64855;DHT22;51321;50.428;8.378;2023-12-28T14:10:59;10.30;99.90
64855;DHT22;51321;50.428;8.378;2023-12-28T14:13:39;10.30;99.90
64855;DHT22;51321;50.428;8.378;2023-12-28T14:16:21;10.30;99.90
64855;DHT22;51321;50.428;8.378;2023-12-28T14:19:01;10.20;99.90
64855;DHT22;51321;50.428;8.378;2023-12-28T14:21:42;10.30;99.90
64855;DHT22;51321;50.428;8.378;2023-12-28T14:24:23;10.30;99.90
64855;DHT22;51321;50.428;8.378;2023-12-28T14:27:05;10.30;99.90
64855;DHT22;51321;50.428;8.378;2023-12-28T14:29:46;10.30;99.90
64855;DHT22;51321;50.428;8.378;2023-12-28T14:32:29;10.30;99.90
64855;DHT22;51321;50.428;8.378;2023-12-28T14:35:11;10.40;99.90
64855;DHT22;51321;50.428;8.378;2023-12-28T14:37:51;10.40;99.90
64855;DHT22;51321;50.428;8.378;2023-12-28T14:40:32;10.30;99.90
64855;DHT22;51321;50.428;8.378;2023-12-28T14:43:12;10.30;99.90
64855;DHT22;51321;50.428;8.378;2023-12-28T14:45:53;10.20;99.90
64855;DHT22;51321;50.428;8.378;2023-12-28T14:48:35;10.20;99.90
64855;DHT22;51321;50.428;8.378;2023-12-28T14:51:16;10.20;99.90
64855;DHT22;51321;50.428;8.378;2023-12-28T14:53:56;10.20;99.90
64855;DHT22;51321;50.428;8.378;2023-12-28T14:56:37;10.00;99.90
64855;DHT22;51321;50.428;8.378;2023-12-28T14:59:18;10.10;99.90
64855;DHT22;51321;50.428;8.378;2023-12-28T15:01:58;9.90;99.90
64855;DHT22;51321;50.428;8.378;2023-12-28T15:04:40;9.80;99.90
64855;DHT22;51321;50.428;8.378;2023-12-28T15:07:21;9.80;99.90
64855;DHT22;51321;50.428;8.378;2023-12-28T15:10:02;9.80;99.90
64855;DHT22;51321;50.428;8.378;2023-12-28T15:12:43;9.70;99.90
64855;DHT22;51321;50.428;8.378;2023-12-28T15:15:24;9.60;99.90
64855;DHT22;51321;50.428;8.378;2023-12-28T15:18:06;9.60;99.90
64855;DHT22;51321;50.428;8.378;2023-12-28T15:20:48;9.50;99.90
64855;DHT22;51321;50.428;8.378;2023-12-28T15:23:29;9.50;99.90
64855;DHT22;51321;50.428;8.378;2023-12-28T15:26:10;9.60;99.90
64855;DHT22;51321;50.428;8.378;2023-12-28T15:28:51;9.60;99.90
64855;DHT22;51321;50.428;8.378;2023-12-28T15:31:31;9.60;99.90
64855;DHT22;51321;50.428;8.378;2023-12-28T15:34:12;9.60;99.90
64855;DHT22;51321;50.428;8.378;2023-12-28T15:36:55;9.60;99.90
64855;DHT22;51321;50.428;8.378;2023-12-28T15:39:35;9.60;99.90
64855;DHT22;51321;50.428;8.378;2023-12-28T15:42:16;9.60;99.90
64855;DHT22;51321;50.428;8.378;2023-12-28T15:44:56;9.60;99.90
64855;DHT22;51321;50.428;8.378;2023-12-28T15:47:37;9.50;99.90
64855;DHT22;51321;50.428;8.378;2023-12-28T15:50:17;9.40;99.90
64855;DHT22;51321;50.428;8.378;2023-12-28T15:53:00;9.30;99.90
64855;DHT22;51321;50.428;8.378;2023-12-28T15:55:40;9.20;99.90
64855;DHT22;51321;50.428;8.378;2023-12-28T15:58:21;9.10;99.90
64855;DHT22;51321;50.428;8.378;2023-12-28T16:01:02;9.00;99.90
64855;DHT22;51321;50.428;8.378;2023-12-28T16:03:42;9.00;99.90
64855;DHT22;51321;50.428;8.378;2023-12-28T16:06:23;8.90;99.90
64855;DHT22;51321;50.428;8.378;2023-12-28T16:09:05;8.80;99.90
64855;DHT22;51321;50.428;8.378;2023-12-28T16:11:45;8.80;99.90
64855;DHT22;51321;50.428;8.378;2023-12-28T16:14:26;8.80;99.90
64855;DHT22;51321;50.428;8.378;2023-12-28T16:17:07;8.90;99.90
64855;DHT22;51321;50.428;8.378;2023-12-28T16:19:50;8.90;99.90
64855;DHT22;51321;50.428;8.378;2023-12-28T16:22:31;8.80;99.90
64855;DHT22;51321;50.428;8.378;2023-12-28T16:25:13;8.80;99.90
64855;DHT22;51321;50.428;8.378;2023-12-28T16:27:54;8.60;99.90
64855;DHT22;51321;50.428;8.378;2023-12-28T16:30:35;8.60;99.90
64855;DHT22;51321;50.428;8.378;2023-12-28T16:33:15;8.60;99.90
64855;DHT22;51321;50.428;8.378;2023-12-28T16:35:56;8.70;99.90
64855;DHT22;51321;50.428;8.378;2023-12-28T16:38:37;8.70;99.90
64855;DHT22;51321;50.428;8.378;2023-12-28T16:41:19;8.80;99.90
64855;DHT22;51321;50.428;8.378;2023-12-28T16:43:59;8.90;99.90
64855;DHT22;51321;50.428;8.378;2023-12-28T16:46:43;9.00;99.90
64855;DHT22;51321;50.428;8.378;2023-12-28T16:49:24;9.00;99.90
64855;DHT22;51321;50.428;8.378;2023-12-28T16:52:05;9.00;99.90
64855;DHT22;51321;50.428;8.378;2023-12-28T16:54:45;9.00;99.90
64855;DHT22;51321;50.428;8.378;2023-12-28T16:57:27;9.00;99.90
64855;DHT22;51321;50.428;8.378;2023-12-28T17:00:08;9.00;99.90
64855;DHT22;51321;50.428;8.378;2023-12-28T17:02:49;9.00;99.90
64855;DHT22;51321;50.428;8.378;2023-12-28T17:05:30;8.90;99.90
64855;DHT22;51321;50.428;8.378;2023-12-28T17:08:10;9.00;99.90
64855;DHT22;51321;50.428;8.378;2023-12-28T17:10:52;9.00;99.90